OMAA

Abu Dhabi International Airport

Airport
ICAO code
OMAA
IATA Code
AUH
Summary
ICAO Region
MID
ICAO Territory
Location

Abu Dhabi, Abu Dhabi

Serving
Abu Dhabi
Elevation
88 ft
Coordinates
24° 25' 59" N , 54° 39' 4" E
KCC
Airport LOS
Parallel Runway Operation
Airport WX
Fog
Metar
Observation
OMAA 031900Z 03008KT CAVOK 31/26 Q1007 NOSIG
Station
Abu Dhabi International Airport
Date/Time
2022-10-03 19:00:00
Wind direction
30°
Wind speed
08 kts
Lowest cloud amount
clouds and visibility OK
Temperature
31°C
Dew point
26°C
Humidity
74%
QNH
1007 hPa
Weather condition
n/a

International airport to the east of the city of Abu Dhabi.

Climatology

Hot Desert Climate (Köppen climate classification BWh)

Runways

Designator Length Width Surface Rops
13/31 4100 45 ASP Yes/Yes

SKYbrary Partners:

Safety knowledge contributed by: